Providence, Rhode Island
Traffic Map
Current Weather Conditions
Providence, Rhode Island
Clear
Clear
22°
Feels Like: 22°
Wind Chill: 22° Ceiling: Unl
Heat Index: 22° Visibility: 10mi
Dew Point: 17° Wind: 7mph
Humidity: 71% Direction: 220° (SW)
Pressure: 30.02in Gusts: 0mph
Raw Report DataKPVD 230451Z AUTO 22006KT 10SM CLR 22/17 A3002 RMK AO2 SLP166 T02220167 403060172
Traffic Incident Summary
Active as of:
Severity:
Category:
InformationThere was an issue retrieving the traffic information for this location. Please try a different location or try again shortly.
Advertisements
Track Severe Weather on mobile